KSOP/SOP METAR and TAF weather

Enter ICAO airport designator
Station Type Date Time Source
KSOP METAR 2021/05/12 00:56 UTC NOAA

KSOP 120056Z AUTO 00000KT 10SM CLR 17/13 A3010 RMK AO2 SLP197 T01670128


Station Type Date Time Source
KSOP Decoded METAR 2021/05/12 00:56 UTC NOAA

Pinehurst/Southern Pines, Moore County Airport, NC, United States (KSOP) 35-14N 079-24W
May 11, 2021 - 08:56 PM EDT / 2021.05.12 0056 UTC
Wind: Calm:0
Visibility: 10 mile(s):0
Sky conditions: clear
Temperature: 62.1 F (16.7 C)
Dew Point: 55.0 F (12.8 C)
Relative Humidity: 77%
Pressure (altimeter): 30.1 in. Hg (1019 hPa)
ob: KSOP 120056Z AUTO 00000KT 10SM CLR 17/13 A3010 RMK AO2 SLP197 T01670128
cycle: 1

Station Type Date Time Source
KSOP TAF UTC NOAA

Error!

Example: see airport list